Time;durP1;ratioP1;P1;durP2;ratioP2;P2;SDS_P1;SDS_P2;PMS_P1;PMS_P2;Temp;Humidity;BMP_temperature;BMP_pressure;BME280_temperature;BME280_humidity;BME280_pressure;Samples;Min_cycle;Max_cycle;Signal;HPM_P1;HPM_P2
2022/06/14 00:03:09;;;;;;;8.98;2.28;;;;;;;21.75;40.54;102472.41;5014283;28;20103;-71
2022/06/14 00:05:34;;;;;;;10.52;2.30;;;;;;;21.73;40.57;102471.03;5014398;28;20065;-69
2022/06/14 00:07:59;;;;;;;9.73;1.88;;;;;;;21.94;39.82;102463.81;5015033;28;20033;-71
2022/06/14 00:10:25;;;;;;;5.15;2.10;;;;;;;21.91;39.63;102461.63;5014167;28;20037;-70
2022/06/14 00:12:51;;;;;;;11.25;2.58;;;;;;;21.78;39.85;102462.84;5014004;28;20049;-70
2022/06/14 00:15:17;;;;;;;9.32;2.55;;;;;;;21.76;40.02;102465.00;5013872;28;20026;-70
2022/06/14 00:17:43;;;;;;;10.25;2.60;;;;;;;21.66;40.25;102457.53;5013786;28;20479;-70
2022/06/14 00:20:10;;;;;;;5.70;1.83;;;;;;;21.49;40.29;102458.75;5012925;28;20034;-71
2022/06/14 00:22:35;;;;;;;12.25;3.55;;;;;;;21.40;40.24;102463.03;5014392;28;20025;-70
2022/06/14 00:25:01;;;;;;;5.40;2.20;;;;;;;21.17;41.11;102466.06;5013429;28;20386;-70
2022/06/14 00:27:26;;;;;;;8.75;2.22;;;;;;;21.59;39.99;102458.84;5013818;28;20359;-72
2022/06/14 00:29:51;;;;;;;12.35;2.60;;;;;;;21.62;39.98;102455.59;5013499;28;20034;-70
2022/06/14 00:32:17;;;;;;;10.27;2.47;;;;;;;21.46;40.57;102460.06;5013926;28;20556;-70
2022/06/14 00:34:42;;;;;;;7.90;2.20;;;;;;;20.81;42.45;102464.78;5014461;28;20478;-68
2022/06/14 00:37:16;;;;;;;6.40;2.35;;;;;;;21.06;41.96;102461.53;5013885;28;20509;-69
2022/06/14 00:39:42;;;;;;;6.75;1.73;;;;;;;21.12;41.91;102463.25;5013906;28;20037;-69
2022/06/14 00:42:21;;;;;;;10.85;3.15;;;;;;;21.26;41.39;102457.16;5013856;28;20054;-70
2022/06/14 00:45:23;;;;;;;10.38;2.50;;;;;;;21.19;41.00;102459.22;5012478;28;20088;-70
2022/06/14 00:48:03;;;;;;;7.05;2.42;;;;;;;20.88;41.85;102452.56;4914297;29;20183;-70
2022/06/14 00:50:37;;;;;;;14.03;2.37;;;;;;;20.91;41.73;102452.03;4915020;29;20400;-71
2022/06/14 00:53:12;;;;;;;5.88;2.00;;;;;;;21.21;41.08;102448.88;4915139;29;20048;-70
2022/06/14 00:55:55;;;;;;;13.88;2.58;;;;;;;21.15;41.06;102454.56;4914955;29;20048;-69
2022/06/14 00:58:31;;;;;;;9.75;2.30;;;;;;;21.28;40.63;102454.16;4914292;29;20550;-70
2022/06/14 01:01:03;;;;;;;8.82;2.05;;;;;;;21.14;41.33;102461.09;4913580;29;20071;-69
2022/06/14 01:03:38;;;;;;;9.00;2.00;;;;;;;21.16;40.85;102469.88;4913060;29;20398;-70
2022/06/14 01:06:11;;;;;;;11.75;2.60;;;;;;;21.22;40.96;102460.63;4913572;29;20480;-70
2022/06/14 01:08:46;;;;;;;5.82;2.00;;;;;;;20.77;42.06;102460.88;4913478;29;20507;-72
2022/06/14 01:11:20;;;;;;;7.25;1.98;;;;;;;20.98;41.60;102458.16;4913930;29;20040;-70
2022/06/14 01:13:46;;;;;;;13.13;1.95;;;;;;;21.08;41.55;102465.69;4928657;29;20118;-70
2022/06/14 01:16:11;;;;;;;12.38;2.20;;;;;;;21.17;41.34;102466.06;4932805;29;20031;-70
2022/06/14 01:18:38;;;;;;;8.48;2.03;;;;;;;20.91;41.69;102471.16;4932547;29;20054;-70
2022/06/14 01:21:04;;;;;;;9.25;2.72;;;;;;;21.10;41.42;102459.94;4932863;29;20055;-71
2022/06/14 01:23:30;;;;;;;10.50;2.72;;;;;;;21.18;41.28;102459.50;4932845;29;20040;-71
2022/06/14 01:26:06;;;;;;;7.22;1.92;;;;;;;20.93;41.84;102449.88;5006729;28;20049;-71
2022/06/14 01:28:34;;;;;;;9.75;2.97;;;;;;;21.02;41.92;102446.72;5013135;28;20492;-70
2022/06/14 01:30:59;;;;;;;5.38;1.85;;;;;;;21.04;41.69;102450.88;5012521;28;20117;-70
2022/06/14 01:33:32;;;;;;;10.48;2.72;;;;;;;20.84;42.97;102450.59;5012847;28;20168;-69
2022/06/14 01:36:07;;;;;;;12.23;2.00;;;;;;;20.90;42.15;102452.31;4994229;28;20042;-70
2022/06/14 01:38:32;;;;;;;8.00;2.22;;;;;;;20.81;42.55;102451.09;5012596;28;20038;-71
2022/06/14 01:41:25;;;;;;;6.72;2.10;;;;;;;20.65;42.72;102441.06;5011757;28;20053;-69
2022/06/14 01:44:06;;;;;;;7.03;2.58;;;;;;;20.94;41.75;102442.50;5013118;28;20112;-69
2022/06/14 01:46:43;;;;;;;6.60;2.00;;;;;;;20.83;42.11;102443.47;5012477;28;20096;-70
2022/06/14 01:52:26;;;;;;;9.80;2.03;;;;;;;20.77;42.24;102444.50;5012887;28;20049;-70
2022/06/14 01:55:04;;;;;;;13.50;2.45;;;;;;;20.65;42.79;102444.63;5012389;28;20741;-70
2022/06/14 01:57:33;;;;;;;8.63;2.97;;;;;;;20.82;42.36;102444.53;5012387;28;20038;-71
2022/06/14 02:00:10;;;;;;;6.50;2.13;;;;;;;20.74;42.10;102442.25;5012508;28;20409;-70
2022/06/14 02:04:37;;;;;;;10.00;1.95;;;;;;;20.53;43.03;102443.91;5010878;28;20061;-70
2022/06/14 02:05:58;;;;;;;5.53;2.28;;;;;;;20.43;43.98;102442.91;5012268;28;20088;-71
2022/06/14 02:08:30;;;;;;;12.00;2.30;;;;;;;20.52;43.07;102433.25;5012465;28;20076;-71
2022/06/14 02:11:08;;;;;;;9.45;2.45;;;;;;;20.60;42.99;102428.16;5012892;28;20030;-69
2022/06/14 02:13:48;;;;;;;14.60;1.77;;;;;;;20.34;43.36;102434.34;5012946;28;20052;-71
2022/06/14 02:16:23;;;;;;;7.13;1.88;;;;;;;20.44;43.02;102433.66;5016528;28;20116;-70
2022/06/14 02:19:20;;;;;;;6.82;2.60;;;;;;;20.39;43.45;102423.50;5031788;28;20040;-70
2022/06/14 02:21:49;;;;;;;6.00;1.77;;;;;;;20.40;43.05;102421.59;4990274;28;20042;-70
2022/06/14 02:24:23;;;;;;;11.47;3.90;;;;;;;20.42;42.97;102433.09;4992611;28;20117;-70
2022/06/14 02:26:56;;;;;;;7.70;2.17;;;;;;;20.25;43.58;102426.81;4992375;28;20118;-71
2022/06/14 02:29:37;;;;;;;8.50;1.98;;;;;;;20.49;42.71;102422.81;4992490;28;20105;-71
2022/06/14 02:32:06;;;;;;;6.60;1.70;;;;;;;20.50;42.91;102427.19;4975106;28;20077;-70
2022/06/14 02:34:45;;;;;;;10.00;2.15;;;;;;;20.49;42.85;102420.91;5012122;28;20041;-69
2022/06/14 02:37:52;;;;;;;7.90;2.35;;;;;;;20.27;43.40;102422.75;5012022;28;20034;-71
2022/06/14 02:40:26;;;;;;;7.68;2.45;;;;;;;20.19;44.10;102428.66;5012072;28;20145;-71
2022/06/14 02:43:01;;;;;;;21.77;2.88;;;;;;;20.37;43.14;102427.53;5013992;28;20393;-71
2022/06/14 02:45:36;;;;;;;9.70;2.08;;;;;;;20.17;43.37;102422.59;5015855;28;20042;-70
2022/06/14 02:48:20;;;;;;;9.93;2.20;;;;;;;20.11;43.68;102424.41;5015540;28;20030;-70
2022/06/14 02:50:54;;;;;;;7.43;2.55;;;;;;;19.90;44.65;102433.38;5016146;28;20134;-71
2022/06/14 02:53:26;;;;;;;8.20;2.30;;;;;;;19.84;44.37;102428.06;5015807;28;20045;-69
2022/06/14 02:55:57;;;;;;;7.15;1.63;;;;;;;20.17;43.38;102429.97;4996727;28;20018;-70
2022/06/14 02:58:30;;;;;;;8.50;2.22;;;;;;;19.98;44.10;102429.38;4996453;28;20099;-71
2022/06/14 03:01:04;;;;;;;6.95;1.95;;;;;;;20.08;43.77;102421.38;4994510;28;20043;-70
2022/06/14 03:03:53;;;;;;;8.55;2.55;;;;;;;20.07;43.80;102420.53;4994460;28;20054;-69
2022/06/14 03:06:36;;;;;;;7.45;1.73;;;;;;;20.06;44.29;102421.63;4996034;28;20129;-70
2022/06/14 03:09:10;;;;;;;9.15;2.03;;;;;;;20.04;43.88;102406.56;4995846;28;20089;-73
2022/06/14 03:12:10;;;;;;;9.48;2.25;;;;;;;19.94;44.66;102412.69;4996053;28;20121;-69
2022/06/14 03:14:38;;;;;;;12.32;2.03;;;;;;;20.08;44.03;102407.72;4996061;28;20169;-70
2022/06/14 03:17:30;;;;;;;16.75;2.90;;;;;;;20.11;43.58;102397.13;4996350;28;20038;-68
2022/06/14 03:20:08;;;;;;;9.75;1.77;;;;;;;20.10;43.86;102405.56;4995736;28;20096;-70
2022/06/14 03:22:51;;;;;;;12.10;2.55;;;;;;;20.02;43.73;102406.81;4996001;28;20034;-70
2022/06/14 03:25:37;;;;;;;8.80;1.77;;;;;;;20.29;43.21;102408.84;4995714;28;20043;-69
2022/06/14 03:28:08;;;;;;;11.73;3.33;;;;;;;20.11;43.82;102405.31;4994196;28;20405;-70
2022/06/14 03:30:44;;;;;;;11.20;2.58;;;;;;;20.20;43.49;102405.75;4995762;28;20374;-68
2022/06/14 03:33:34;;;;;;;7.18;1.92;;;;;;;20.04;43.93;102407.41;4995424;28;20082;-70
2022/06/14 03:36:01;;;;;;;3.75;1.50;;;;;;;20.17;43.61;102409.78;4995907;28;20034;-70
2022/06/14 03:38:38;;;;;;;7.40;2.17;;;;;;;20.01;44.42;102404.31;4995320;28;21506;-70
2022/06/14 03:41:05;;;;;;;6.75;1.98;;;;;;;20.15;44.03;102411.09;4995907;28;20041;-70
2022/06/14 03:43:32;;;;;;;4.97;1.83;;;;;;;20.15;43.96;102406.47;4994724;28;20454;-68
2022/06/14 03:46:14;;;;;;;9.63;2.30;;;;;;;20.21;43.74;102399.19;4994823;28;20046;-69
2022/06/14 03:48:43;;;;;;;7.57;2.92;;;;;;;20.07;44.28;102406.03;4986793;28;20054;-70
2022/06/14 03:51:38;;;;;;;7.97;1.77;;;;;;;20.04;44.47;102401.94;5022822;28;20034;-70
2022/06/14 03:54:33;;;;;;;10.88;2.13;;;;;;;20.05;44.11;102400.00;5034226;28;20038;-69
2022/06/14 03:57:08;;;;;;;7.75;2.25;;;;;;;20.26;43.61;102398.44;5034535;28;20117;-70
2022/06/14 03:59:52;;;;;;;5.78;1.98;;;;;;;20.17;44.22;102405.41;5034430;28;20485;-71
2022/06/14 04:02:53;;;;;;;7.68;1.98;;;;;;;20.28;43.82;102409.94;5021086;28;20030;-72
2022/06/14 04:05:43;;;;;;;5.32;1.70;;;;;;;20.29;43.48;102403.41;5013817;28;20038;-71
2022/06/14 04:08:40;;;;;;;8.77;2.53;;;;;;;20.18;44.01;102407.88;4972812;28;20046;-69
2022/06/14 04:11:21;;;;;;;8.63;2.35;;;;;;;20.26;43.34;102409.38;4896875;29;20229;-70
2022/06/14 04:14:15;;;;;;;;;;;;;;;20.14;44.04;102404.81;4897306;29;20127;-70
2022/06/14 04:16:52;;;;;;;9.50;3.15;;;;;;;20.36;43.18;102410.34;4804669;29;19992;-70
2022/06/14 04:19:35;;;;;;;5.35;2.10;;;;;;;20.03;44.14;102410.34;4804337;29;20137;-69
2022/06/14 04:22:24;;;;;;;10.10;1.63;;;;;;;20.03;44.40;102404.91;4821335;29;20050;-70
2022/06/14 04:24:57;;;;;;;10.43;2.35;;;;;;;20.34;43.49;102408.94;4768270;30;20504;-71
2022/06/14 04:27:39;;;;;;;8.27;2.47;;;;;;;20.17;43.33;102410.84;4768512;30;20670;-70
2022/06/14 04:30:16;;;;;;;7.40;1.85;;;;;;;20.17;43.43;102414.41;4768687;30;20044;-69
2022/06/14 04:33:10;;;;;;;10.32;2.47;;;;;;;20.42;42.95;102413.97;4768719;30;20067;-70
2022/06/14 04:36:05;;;;;;;7.35;1.70;;;;;;;20.25;43.75;102421.34;4750970;30;20037;-70
2022/06/14 04:38:42;;;;;;;11.27;2.80;;;;;;;20.57;42.93;102427.81;4750580;30;20175;-71
2022/06/14 04:41:18;;;;;;;10.50;1.92;;;;;;;20.48;42.95;102432.88;4750727;30;20067;-68
2022/06/14 04:44:11;;;;;;;5.40;2.17;;;;;;;20.51;42.84;102424.22;4750964;30;20537;-69
2022/06/14 04:46:46;;;;;;;8.73;2.22;;;;;;;20.23;43.88;102427.06;4778165;29;20196;-72
2022/06/14 04:49:20;;;;;;;8.55;2.42;;;;;;;20.66;42.98;102427.13;4840327;29;20577;-70
2022/06/14 04:51:50;;;;;;;8.45;2.28;;;;;;;20.45;44.16;102444.34;4840679;29;20061;-71
2022/06/14 04:54:24;;;;;;;5.35;2.10;;;;;;;20.46;44.05;102440.50;4931871;29;20042;-72
2022/06/14 04:56:58;;;;;;;7.78;2.50;;;;;;;20.60;43.89;102439.06;4933641;29;20040;-70
2022/06/14 04:59:38;;;;;;;9.85;2.13;;;;;;;20.76;43.40;102431.91;4933476;29;20058;-71
2022/06/14 05:02:25;;;;;;;9.50;2.22;;;;;;;20.87;43.00;102433.69;4978605;28;20041;-69
2022/06/14 05:04:55;;;;;;;7.03;2.63;;;;;;;21.13;41.96;102432.91;5012528;28;20053;-70
2022/06/14 05:07:26;;;;;;;;;;;;;;;20.80;43.22;102427.56;5014285;28;20038;-74
2022/06/14 05:10:03;;;;;;;6.00;2.05;;;;;;;20.94;43.59;102431.56;5013135;28;19960;-70
2022/06/14 05:12:41;;;;;;;9.35;2.70;;;;;;;21.20;42.88;102438.19;5013240;28;20126;-71
2022/06/14 05:15:17;;;;;;;7.82;2.47;;;;;;;21.47;41.95;102436.28;5009639;28;20076;-72
2022/06/14 05:17:55;;;;;;;5.97;2.40;;;;;;;21.23;42.88;102432.22;5011915;28;20096;-70
2022/06/14 05:20:40;;;;;;;7.80;2.35;;;;;;;21.06;42.96;102437.78;5012640;28;20080;-71
2022/06/14 05:23:25;;;;;;;11.60;2.67;;;;;;;21.33;42.51;102445.97;5011676;28;20034;-69
2022/06/14 05:26:06;;;;;;;13.85;2.85;;;;;;;21.38;43.10;102446.06;5007355;28;20041;-72
2022/06/14 05:28:43;;;;;;;5.35;2.50;;;;;;;21.34;42.74;102451.22;5017421;28;20038;-71
2022/06/14 05:31:16;;;;;;;13.13;2.58;;;;;;;21.66;42.76;102438.38;5012261;28;20038;-69
2022/06/14 05:33:54;;;;;;;6.05;2.72;;;;;;;21.60;43.08;102450.38;5012458;28;20029;-69
2022/06/14 05:36:32;;;;;;;9.48;3.45;;;;;;;21.62;42.72;102447.41;4995143;28;20054;-70
2022/06/14 05:39:05;;;;;;;11.75;2.92;;;;;;;21.74;43.33;102446.13;5023160;28;20037;-71
2022/06/14 05:41:42;;;;;;;12.60;2.85;;;;;;;21.36;44.02;102453.69;5012701;28;20030;-68
2022/06/14 05:44:22;;;;;;;9.32;3.22;;;;;;;21.75;43.33;102446.97;5012359;28;20041;-70
2022/06/14 05:46:53;;;;;;;9.82;2.40;;;;;;;22.14;42.17;102447.56;5013108;28;20017;-71
2022/06/14 05:49:22;;;;;;;;;;;;;;;21.92;42.61;102438.63;5013045;28;20046;-71
2022/06/14 05:51:59;;;;;;;8.77;2.50;;;;;;;22.07;42.32;102445.06;5012454;28;19920;-71
2022/06/14 05:54:34;;;;;;;12.15;2.92;;;;;;;22.26;41.85;102449.03;5012435;28;20050;-70
2022/06/14 05:57:29;;;;;;;12.05;2.97;;;;;;;22.34;41.23;102450.44;4994453;28;20034;-68
2022/06/14 06:00:04;;;;;;;7.93;2.47;;;;;;;22.38;41.68;102455.13;4970556;28;20046;-69
2022/06/14 06:02:37;;;;;;;8.30;2.55;;;;;;;22.39;40.82;102458.69;4964790;28;20462;-71
2022/06/14 06:05:16;;;;;;;11.20;2.47;;;;;;;21.97;42.12;102464.16;4956923;28;20087;-70
2022/06/14 06:07:55;;;;;;;10.60;2.25;;;;;;;22.20;41.61;102455.56;4954246;28;20039;-69
2022/06/14 06:10:31;;;;;;;4.60;1.73;;;;;;;22.16;41.28;102461.81;4956216;28;20039;-71
2022/06/14 06:13:08;;;;;;;10.38;2.88;;;;;;;22.05;42.11;102460.09;4957343;28;20503;-71
2022/06/14 06:15:47;;;;;;;11.70;3.05;;;;;;;22.47;41.13;102458.19;4959418;28;20037;-70
2022/06/14 06:18:25;;;;;;;8.30;3.88;;;;;;;22.55;40.58;102453.03;4981581;28;20046;-71
2022/06/14 06:21:03;;;;;;;12.15;3.17;;;;;;;22.91;40.40;102456.81;4980912;28;20158;-71
2022/06/14 06:23:35;;;;;;;13.77;2.88;;;;;;;23.04;40.09;102470.00;4977560;28;20054;-71
2022/06/14 06:26:01;;;;;;;10.18;2.92;;;;;;;22.32;41.93;102463.59;4978361;28;20030;-71
2022/06/14 06:28:32;;;;;;;10.90;3.33;;;;;;;22.14;41.69;102462.09;4977910;28;20039;-71
2022/06/14 06:31:35;;;;;;;6.10;2.53;;;;;;;22.95;40.06;102468.91;4979974;28;20043;-70
2022/06/14 06:34:04;;;;;;;8.20;2.55;;;;;;;23.34;39.89;102469.31;4958609;28;20566;-71
2022/06/14 06:36:40;;;;;;;9.13;3.95;;;;;;;23.01;39.94;102467.81;4965973;28;20403;-69
2022/06/14 06:39:25;;;;;;;13.02;3.10;;;;;;;23.39;39.09;102470.16;4996836;28;20034;-72
2022/06/14 06:41:56;;;;;;;9.65;2.45;;;;;;;23.37;38.95;102469.59;5003561;28;20030;-70
2022/06/14 06:44:38;;;;;;;10.20;1.90;;;;;;;23.19;39.29;102475.53;4994820;28;20402;-70
2022/06/14 06:47:40;;;;;;;6.07;2.33;;;;;;;22.91;39.92;102472.44;5007344;28;20029;-70
2022/06/14 06:50:15;;;;;;;6.85;2.38;;;;;;;22.93;38.64;102470.25;5016745;28;20072;-71
2022/06/14 06:52:55;;;;;;;6.35;2.83;;;;;;;23.16;38.64;102472.53;5016244;28;20037;-71
2022/06/14 06:55:46;;;;;;;8.90;2.50;;;;;;;23.37;39.03;102471.53;5008383;28;20026;-70
2022/06/14 06:58:24;;;;;;;15.63;2.97;;;;;;;23.68;38.09;102472.41;5011505;28;20033;-70
2022/06/14 07:00:54;;;;;;;8.27;2.50;;;;;;;23.29;38.50;102470.09;5016705;28;20030;-70
2022/06/14 07:03:46;;;;;;;6.93;3.47;;;;;;;23.46;38.74;102470.72;5019107;28;20046;-69
2022/06/14 07:06:19;;;;;;;8.95;2.20;;;;;;;23.28;37.86;102464.88;4918913;29;20101;-70
2022/06/14 07:08:52;;;;;;;8.15;1.90;;;;;;;22.50;39.08;102465.88;4912930;29;20048;-69
2022/06/14 07:11:22;;;;;;;6.10;2.05;;;;;;;22.59;38.95;102462.41;4908322;29;20127;-70
2022/06/14 07:13:56;;;;;;;5.90;1.92;;;;;;;23.09;38.86;102464.56;4913675;29;20389;-70
2022/06/14 07:16:40;;;;;;;10.52;2.60;;;;;;;24.04;37.13;102463.09;4920772;29;20385;-71
2022/06/14 07:19:25;;;;;;;9.15;1.80;;;;;;;23.72;36.25;102465.28;4914744;29;20120;-70
2022/06/14 07:21:57;;;;;;;6.72;2.50;;;;;;;23.98;35.38;102465.00;4917172;29;20080;-69
2022/06/14 07:24:29;;;;;;;7.32;2.25;;;;;;;24.36;34.75;102458.13;4917125;29;20036;-70
2022/06/14 07:27:07;;;;;;;8.45;2.88;;;;;;;24.19;34.61;102465.84;4915014;29;20418;-70
2022/06/14 07:29:51;;;;;;;4.88;1.80;;;;;;;24.27;34.51;102470.78;4915089;29;20043;-71
2022/06/14 07:32:46;;;;;;;4.40;1.60;;;;;;;23.23;36.52;102476.66;4915205;29;20103;-70
2022/06/14 07:35:17;;;;;;;10.77;2.03;;;;;;;22.61;38.49;102478.59;4917639;29;20036;-68
2022/06/14 07:37:45;;;;;;;;;;;;;;;22.84;37.50;102486.38;4921262;29;20408;-68
2022/06/14 07:40:39;;;;;;;6.28;1.30;;;;;;;22.55;37.50;102483.19;4910675;29;20354;-69
2022/06/14 07:43:39;;;;;;;5.30;1.52;;;;;;;22.80;38.12;102477.03;4971452;28;20377;-70
2022/06/14 07:46:11;;;;;;;5.95;1.30;;;;;;;22.33;38.91;102482.47;5019862;28;20152;-70
2022/06/14 07:48:46;;;;;;;7.40;1.73;;;;;;;21.49;40.45;102478.72;5024331;28;20140;-70
2022/06/14 07:51:24;;;;;;;6.72;1.48;;;;;;;22.44;38.89;102478.75;5018849;28;20061;-69
2022/06/14 07:54:00;;;;;;;9.38;2.92;;;;;;;22.72;38.34;102476.72;5014836;28;20104;-69
2022/06/14 07:56:31;;;;;;;6.38;1.83;;;;;;;23.00;37.94;102476.28;5014930;28;20113;-69
2022/06/14 07:59:08;;;;;;;8.82;1.73;;;;;;;23.25;37.41;102474.47;5012298;28;20032;-70
2022/06/14 08:01:41;;;;;;;6.28;1.70;;;;;;;23.09;37.77;102483.75;5014668;28;20046;-70
2022/06/14 08:04:24;;;;;;;5.80;1.50;;;;;;;23.61;37.30;102475.41;5015980;28;20137;-68
2022/06/14 08:06:58;;;;;;;7.90;1.55;;;;;;;23.17;37.55;102487.91;5021615;28;20056;-70
2022/06/14 08:09:42;;;;;;;5.05;1.65;;;;;;;22.96;37.55;102486.19;5023406;28;20117;-71
2022/06/14 08:12:19;;;;;;;7.43;1.75;;;;;;;23.53;36.62;102482.25;5018781;28;20644;-70
2022/06/14 08:14:55;;;;;;;4.97;1.75;;;;;;;23.25;36.24;102484.63;5021312;28;20057;-69
2022/06/14 08:17:57;;;;;;;6.03;1.35;;;;;;;22.85;37.73;102493.53;5006008;28;20472;-68
2022/06/14 08:20:29;;;;;;;7.68;1.52;;;;;;;23.29;37.27;102481.06;5014858;28;20090;-70
2022/06/14 08:22:58;;;;;;;6.28;1.27;;;;;;;22.84;37.74;102491.06;5002151;28;20038;-69
2022/06/14 08:25:28;;;;;;;3.97;1.83;;;;;;;23.24;35.98;102472.84;5022386;28;20112;-69
2022/06/14 08:28:02;;;;;;;3.43;1.10;;;;;;;23.03;36.39;102479.34;5018099;28;20540;-69
2022/06/14 08:30:35;;;;;;;4.88;2.33;;;;;;;23.53;36.24;102476.78;5016672;28;20762;-70
2022/06/14 08:33:05;;;;;;;6.93;1.70;;;;;;;23.25;36.90;102470.91;5015375;28;20042;-69
2022/06/14 08:35:55;;;;;;;4.75;1.05;;;;;;;23.51;36.89;102475.38;5018880;28;20942;-68
2022/06/14 08:38:41;;;;;;;8.88;1.63;;;;;;;23.83;36.58;102475.97;5010780;28;20034;-70
2022/06/14 08:41:27;;;;;;;9.55;1.83;;;;;;;23.40;36.36;102474.56;5021588;28;20029;-70
2022/06/14 08:43:59;;;;;;;8.27;2.35;;;;;;;23.67;35.69;102463.34;5017289;28;20196;-70
2022/06/14 08:46:24;;;;;;;5.07;1.42;;;;;;;24.47;34.65;102469.91;5018555;28;20037;-69
2022/06/14 08:49:15;;;;;;;8.63;2.00;;;;;;;25.26;34.53;102466.03;5015797;28;20157;-70
2022/06/14 08:52:11;;;;;;;5.72;1.52;;;;;;;24.82;34.75;102467.09;5018164;28;20092;-69
2022/06/14 08:54:46;;;;;;;5.60;1.67;;;;;;;25.13;34.00;102463.94;5011870;28;20506;-71
2022/06/14 08:57:26;;;;;;;5.97;1.20;;;;;;;24.24;35.33;102468.56;5020093;28;20045;-70
2022/06/14 08:59:59;;;;;;;4.68;1.27;;;;;;;23.27;36.18;102469.53;5011273;28;20065;-70
2022/06/14 09:03:03;;;;;;;9.23;1.23;;;;;;;23.04;37.65;102472.75;5019318;28;20386;-71
2022/06/14 09:05:34;;;;;;;3.05;0.98;;;;;;;22.91;37.05;102470.53;5010758;28;20030;-69
2022/06/14 09:08:14;;;;;;;8.80;1.30;;;;;;;22.19;38.43;102461.31;5021289;28;20065;-70
2022/06/14 09:10:48;;;;;;;5.28;1.33;;;;;;;23.55;36.34;102466.34;5024313;28;20522;-69
2022/06/14 09:13:32;;;;;;;5.78;1.42;;;;;;;23.82;35.75;102465.28;5019246;28;20050;-71
2022/06/14 09:16:19;;;;;;;3.92;1.15;;;;;;;23.63;35.58;102467.72;5011950;28;20048;-70
2022/06/14 09:18:55;;;;;;;5.15;1.30;;;;;;;23.88;34.54;102461.44;5020192;28;20088;-70
2022/06/14 09:21:42;;;;;;;6.70;2.15;;;;;;;24.05;34.80;102459.25;5012608;28;20120;-70
2022/06/14 09:24:20;;;;;;;4.22;1.15;;;;;;;25.01;33.38;102457.94;5013102;28;20091;-68
2022/06/14 09:26:54;;;;;;;3.63;1.10;;;;;;;24.74;33.08;102449.25;5014013;28;20088;-70
2022/06/14 09:29:48;;;;;;;6.10;1.80;;;;;;;25.46;31.99;102448.63;5015239;28;20049;-69
2022/06/14 09:35:52;;;;;;;4.47;1.33;;;;;;;25.43;31.47;102449.19;4976752;28;20719;-69
2022/06/14 09:38:29;;;;;;;5.65;2.00;;;;;;;25.28;32.04;102452.00;4976959;28;20133;-70
2022/06/14 09:41:12;;;;;;;3.70;1.27;;;;;;;25.13;32.63;102457.59;4977770;28;20089;-71
2022/06/14 09:44:24;;;;;;;4.45;0.98;;;;;;;23.23;35.14;102449.22;4973023;28;20556;-69
2022/06/14 09:47:09;;;;;;;5.18;0.93;;;;;;;23.77;34.54;102448.78;4922339;29;20052;-69
2022/06/14 09:49:57;;;;;;;7.13;1.33;;;;;;;25.23;32.56;102441.03;4923048;29;20048;-70
2022/06/14 09:52:50;;;;;;;3.67;1.00;;;;;;;25.46;31.25;102445.03;4913436;29;20556;-70
2022/06/14 09:55:46;;;;;;;4.68;1.55;;;;;;;25.26;32.22;102430.25;4926269;29;20040;-71
2022/06/14 09:58:36;;;;;;;6.72;1.10;;;;;;;25.53;31.98;102440.03;4917017;29;20044;-70
2022/06/14 10:01:25;;;;;;;8.32;1.42;;;;;;;25.52;31.83;102441.97;4918321;29;20044;-72
2022/06/14 10:04:09;;;;;;;5.85;1.20;;;;;;;25.36;32.34;102436.81;4915435;29;20044;-70
2022/06/14 10:07:05;;;;;;;6.90;1.17;;;;;;;25.57;32.60;102444.66;4921917;29;20051;-70
2022/06/14 10:09:43;;;;;;;6.85;1.92;;;;;;;24.12;33.43;102451.53;4919434;29;20118;-71
2022/06/14 10:12:18;;;;;;;5.07;0.93;;;;;;;24.71;32.51;102432.44;4956131;28;20090;-70
2022/06/14 10:15:09;;;;;;;7.28;1.40;;;;;;;23.31;34.92;102439.69;4964498;28;20046;-72
2022/06/14 10:17:44;;;;;;;3.90;1.40;;;;;;;24.64;33.37;102435.50;4962849;28;20035;-71
2022/06/14 10:20:31;;;;;;;5.53;1.63;;;;;;;25.26;32.67;102435.78;4961374;28;20041;-69
2022/06/14 10:23:07;;;;;;;5.50;1.08;;;;;;;26.14;31.59;102430.19;5007110;28;20038;-70
2022/06/14 10:28:11;;;;;;;3.78;1.15;;;;;;;26.78;31.22;102435.25;5023149;28;20065;-70
2022/06/14 10:29:02;;;;;;;3.38;1.17;;;;;;;26.08;30.20;102423.06;5019773;28;20493;-70
2022/06/14 10:31:39;;;;;;;4.43;1.45;;;;;;;25.88;31.66;102428.72;5022578;28;20061;-70
2022/06/14 10:34:41;;;;;;;6.43;1.55;;;;;;;26.09;29.29;102425.53;5025471;28;20110;-70
2022/06/14 10:37:52;;;;;;;4.90;1.08;;;;;;;26.41;30.25;102422.16;5016689;28;20030;-70
2022/06/14 10:40:36;;;;;;;3.25;1.00;;;;;;;27.15;30.61;102423.44;5012523;28;20124;-70
2022/06/14 10:43:12;;;;;;;7.78;0.90;;;;;;;27.64;28.25;102421.06;5012223;28;20049;-63
2022/06/14 10:45:44;;;;;;;3.60;1.15;;;;;;;27.73;28.76;102419.25;4994770;28;20037;-61
2022/06/14 10:48:39;;;;;;;4.00;0.88;;;;;;;28.51;28.57;102413.66;5008148;28;20042;-62
2022/06/14 10:51:43;;;;;;;2.33;0.90;;;;;;;28.76;27.78;102407.63;4995356;28;20263;-62
2022/06/14 10:54:24;;;;;;;5.93;2.63;;;;;;;28.40;27.36;102401.19;4954581;28;20050;-61
2022/06/14 10:57:02;;;;;;;4.43;1.27;;;;;;;28.58;27.26;102397.50;4970239;28;20046;-62
2022/06/14 10:59:47;;;;;;;4.30;1.08;;;;;;;28.13;27.04;102403.91;4969690;28;20553;-60
2022/06/14 11:02:36;;;;;;;4.65;1.02;;;;;;;28.03;28.28;102395.81;4960241;28;20072;-62
2022/06/14 11:05:54;;;;;;;2.67;0.80;;;;;;;27.62;28.07;102395.66;4976115;28;20069;-61
2022/06/14 11:08:29;;;;;;;5.05;0.93;;;;;;;27.27;27.79;102398.97;4894637;29;20048;-61
2022/06/14 11:11:34;;;;;;;3.70;1.60;;;;;;;27.34;29.37;102396.69;4890943;29;20040;-61
2022/06/14 11:14:07;;;;;;;6.10;1.83;;;;;;;26.01;29.77;102395.00;4892675;29;20578;-61
2022/06/14 11:17:06;;;;;;;3.13;1.10;;;;;;;26.14;29.95;102388.00;4891377;29;20076;-61
2022/06/14 11:19:49;;;;;;;4.55;0.93;;;;;;;25.50;31.30;102391.03;4892449;29;20104;-62
2022/06/14 11:22:43;;;;;;;2.70;0.77;;;;;;;25.88;30.58;102379.16;4883948;29;20139;-62
2022/06/14 11:25:17;;;;;;;4.72;1.10;;;;;;;26.10;30.48;102374.00;4892409;29;20041;-63
2022/06/14 11:27:58;;;;;;;3.60;0.90;;;;;;;26.40;30.08;102376.41;4905744;29;20075;-62
2022/06/14 11:30:43;;;;;;;4.72;1.33;;;;;;;24.56;32.95;102381.09;4928757;29;20039;-61
2022/06/14 11:33:23;;;;;;;4.95;1.88;;;;;;;25.33;30.31;102377.66;4930699;29;20416;-61
2022/06/14 11:36:11;;;;;;;3.30;1.13;;;;;;;25.98;30.00;102379.06;4930780;29;20040;-61
2022/06/14 11:38:45;;;;;;;3.08;1.20;;;;;;;25.75;30.42;102371.56;4929335;29;20074;-61
2022/06/14 11:41:14;;;;;;;4.60;1.20;;;;;;;26.37;31.08;102376.16;4930920;29;20043;-61
2022/06/14 11:44:12;;;;;;;1.85;0.90;;;;;;;26.38;30.11;102375.06;4962272;28;20435;-60
2022/06/14 11:46:51;;;;;;;3.03;0.80;;;;;;;26.76;29.40;102374.88;5013125;28;20524;-61
2022/06/14 11:49:38;;;;;;;4.22;1.92;;;;;;;27.44;29.05;102368.94;5014652;28;20053;-62
2022/06/14 11:52:21;;;;;;;2.88;0.85;;;;;;;28.30;26.97;102363.50;5007456;28;20034;-61
2022/06/14 11:54:55;;;;;;;2.83;0.82;;;;;;;27.76;28.07;102361.44;5011702;28;20034;-62
2022/06/14 11:57:49;;;;;;;10.45;1.88;;;;;;;28.72;28.03;102358.78;4998616;28;20045;-62
2022/06/14 12:00:21;;;;;;;3.35;0.95;;;;;;;29.10;25.68;102358.16;5023101;28;20152;-60
2022/06/14 12:03:23;;;;;;;3.70;1.17;;;;;;;29.57;26.75;102356.72;5010329;28;20041;-61
2022/06/14 12:06:08;;;;;;;3.75;0.90;;;;;;;28.74;25.70;102349.00;5010924;28;20042;-62
2022/06/14 12:09:04;;;;;;;3.45;1.00;;;;;;;29.17;26.35;102350.25;5007350;28;20030;-62
2022/06/14 12:12:05;;;;;;;2.63;0.80;;;;;;;29.99;26.21;102345.09;5009612;28;20053;-61
2022/06/14 12:14:55;;;;;;;1.80;0.63;;;;;;;29.56;26.47;102346.78;5007228;28;20401;-61
2022/06/14 12:17:31;;;;;;;4.57;1.27;;;;;;;30.47;25.44;102344.31;5010298;28;20482;-60
2022/06/14 12:20:08;;;;;;;4.63;0.77;;;;;;;29.97;24.29;102347.38;5010889;28;20054;-61
2022/06/14 12:22:50;;;;;;;4.07;1.10;;;;;;;29.65;25.01;102341.28;5010684;28;20037;-61
2022/06/14 12:28:13;;;;;;;3.65;1.15;;;;;;;29.27;24.83;102338.09;5010165;28;20073;-61
2022/06/14 12:30:41;;;;;;;4.72;1.50;;;;;;;28.32;25.76;102330.00;5006961;28;20051;-61
2022/06/14 12:33:22;;;;;;;4.20;1.45;;;;;;;27.64;27.00;102329.88;5009726;28;20034;-60